Terminal Aerodrome Forecast
Issued by NWS

Home | Current Version | Previous Version | Graphics & Text | Print | Product List | Glossary On
Versions: 1 2 3 4 5 6 7 8 9 10 11 12 13 14 15 16 17 18 19 20 21 22 23 24 25 26 27 28 29 30 31 32 33 34
000
FTUS43 KGRB 251700
TAFRHI
TAF
KRHI 251726Z 2518/2618 07009KT P6SM BKN022
     FM252000 05005KT P6SM SCT025 SCT120
     FM252300 VRB03KT P6SM SCT120
     FM260400 19004KT P6SM BKN080 OVC150
     FM261300 20007KT 1SM -SN SCT008 OVC012=

USA.gov is the U.S. government's official web portal to all federal, state and local government web resources and services.